sensor_id;sensor_type;location;lat;lon;timestamp;P1;durP1;ratioP1;P2;durP2;ratioP2
8213;SDS011;4148;47.974;7.824;2023-04-29T00:00:32;4.47;;;2.50;;
8213;SDS011;4148;47.974;7.824;2023-04-29T00:03:00;4.37;;;2.40;;
8213;SDS011;4148;47.974;7.824;2023-04-29T00:05:28;3.60;;;2.27;;
8213;SDS011;4148;47.974;7.824;2023-04-29T00:07:56;3.80;;;2.70;;
8213;SDS011;4148;47.974;7.824;2023-04-29T00:10:24;6.00;;;3.03;;
8213;SDS011;4148;47.974;7.824;2023-04-29T00:12:52;3.13;;;2.83;;
8213;SDS011;4148;47.974;7.824;2023-04-29T00:15:20;4.33;;;2.50;;
8213;SDS011;4148;47.974;7.824;2023-04-29T00:17:49;4.33;;;2.80;;
8213;SDS011;4148;47.974;7.824;2023-04-29T00:20:17;6.10;;;2.57;;
8213;SDS011;4148;47.974;7.824;2023-04-29T00:22:44;3.87;;;2.50;;
8213;SDS011;4148;47.974;7.824;2023-04-29T00:25:12;5.23;;;3.00;;
8213;SDS011;4148;47.974;7.824;2023-04-29T00:27:41;4.63;;;2.40;;
8213;SDS011;4148;47.974;7.824;2023-04-29T00:30:09;2.47;;;2.10;;
8213;SDS011;4148;47.974;7.824;2023-04-29T00:32:37;3.60;;;2.53;;
8213;SDS011;4148;47.974;7.824;2023-04-29T00:35:07;2.93;;;2.63;;
8213;SDS011;4148;47.974;7.824;2023-04-29T00:37:35;3.50;;;2.50;;
8213;SDS011;4148;47.974;7.824;2023-04-29T00:40:03;5.13;;;2.30;;
8213;SDS011;4148;47.974;7.824;2023-04-29T00:42:32;6.13;;;2.53;;
8213;SDS011;4148;47.974;7.824;2023-04-29T00:45:00;4.07;;;2.50;;
8213;SDS011;4148;47.974;7.824;2023-04-29T00:47:28;4.50;;;2.50;;
8213;SDS011;4148;47.974;7.824;2023-04-29T00:49:56;3.10;;;2.77;;
8213;SDS011;4148;47.974;7.824;2023-04-29T00:52:25;5.20;;;2.60;;
8213;SDS011;4148;47.974;7.824;2023-04-29T00:54:53;6.27;;;3.53;;
8213;SDS011;4148;47.974;7.824;2023-04-29T00:57:21;4.20;;;2.63;;
8213;SDS011;4148;47.974;7.824;2023-04-29T00:59:49;5.03;;;2.30;;
8213;SDS011;4148;47.974;7.824;2023-04-29T01:02:18;6.30;;;3.53;;
8213;SDS011;4148;47.974;7.824;2023-04-29T01:04:46;5.63;;;2.50;;
8213;SDS011;4148;47.974;7.824;2023-04-29T01:07:14;2.77;;;2.57;;
8213;SDS011;4148;47.974;7.824;2023-04-29T01:09:51;2.67;;;2.03;;
8213;SDS011;4148;47.974;7.824;2023-04-29T01:12:28;2.80;;;2.10;;
8213;SDS011;4148;47.974;7.824;2023-04-29T01:15:02;3.63;;;2.40;;
8213;SDS011;4148;47.974;7.824;2023-04-29T01:17:35;2.80;;;2.50;;
8213;SDS011;4148;47.974;7.824;2023-04-29T01:20:07;2.40;;;2.10;;
8213;SDS011;4148;47.974;7.824;2023-04-29T01:22:36;4.20;;;1.83;;
8213;SDS011;4148;47.974;7.824;2023-04-29T01:25:06;2.80;;;2.50;;
8213;SDS011;4148;47.974;7.824;2023-04-29T01:27:36;7.70;;;2.90;;
8213;SDS011;4148;47.974;7.824;2023-04-29T01:30:16;4.50;;;2.07;;
8213;SDS011;4148;47.974;7.824;2023-04-29T01:32:55;6.70;;;2.70;;
8213;SDS011;4148;47.974;7.824;2023-04-29T01:35:31;2.43;;;1.87;;
8213;SDS011;4148;47.974;7.824;2023-04-29T01:38:10;2.43;;;2.23;;
8213;SDS011;4148;47.974;7.824;2023-04-29T01:40:46;4.27;;;1.80;;
8213;SDS011;4148;47.974;7.824;2023-04-29T01:43:21;5.23;;;2.50;;
8213;SDS011;4148;47.974;7.824;2023-04-29T01:45:51;3.40;;;2.30;;
8213;SDS011;4148;47.974;7.824;2023-04-29T01:48:21;4.23;;;1.90;;
8213;SDS011;4148;47.974;7.824;2023-04-29T01:50:49;2.30;;;2.03;;
8213;SDS011;4148;47.974;7.824;2023-04-29T01:53:17;5.07;;;2.20;;
8213;SDS011;4148;47.974;7.824;2023-04-29T01:55:46;2.83;;;2.10;;
8213;SDS011;4148;47.974;7.824;2023-04-29T01:58:14;3.00;;;2.00;;
8213;SDS011;4148;47.974;7.824;2023-04-29T02:00:42;3.80;;;1.90;;
8213;SDS011;4148;47.974;7.824;2023-04-29T02:03:10;2.67;;;2.10;;
8213;SDS011;4148;47.974;7.824;2023-04-29T02:05:38;2.73;;;1.87;;
8213;SDS011;4148;47.974;7.824;2023-04-29T02:08:06;3.10;;;2.10;;
8213;SDS011;4148;47.974;7.824;2023-04-29T02:10:33;3.43;;;2.10;;
8213;SDS011;4148;47.974;7.824;2023-04-29T02:13:03;2.87;;;2.00;;
8213;SDS011;4148;47.974;7.824;2023-04-29T02:15:30;3.43;;;2.00;;
8213;SDS011;4148;47.974;7.824;2023-04-29T02:17:58;5.50;;;1.93;;
8213;SDS011;4148;47.974;7.824;2023-04-29T02:20:26;3.23;;;1.70;;
8213;SDS011;4148;47.974;7.824;2023-04-29T02:22:54;3.20;;;2.20;;
8213;SDS011;4148;47.974;7.824;2023-04-29T02:25:21;6.40;;;2.20;;
8213;SDS011;4148;47.974;7.824;2023-04-29T02:27:49;3.50;;;2.00;;
8213;SDS011;4148;47.974;7.824;2023-04-29T02:30:18;2.60;;;1.93;;
8213;SDS011;4148;47.974;7.824;2023-04-29T02:32:46;3.73;;;1.83;;
8213;SDS011;4148;47.974;7.824;2023-04-29T02:35:14;4.37;;;2.50;;
8213;SDS011;4148;47.974;7.824;2023-04-29T02:37:42;4.00;;;2.50;;
8213;SDS011;4148;47.974;7.824;2023-04-29T02:40:10;3.13;;;2.73;;
8213;SDS011;4148;47.974;7.824;2023-04-29T02:42:39;3.03;;;2.43;;
8213;SDS011;4148;47.974;7.824;2023-04-29T02:45:08;6.20;;;2.60;;
8213;SDS011;4148;47.974;7.824;2023-04-29T02:47:38;7.47;;;3.27;;
8213;SDS011;4148;47.974;7.824;2023-04-29T02:50:06;3.97;;;2.60;;
8213;SDS011;4148;47.974;7.824;2023-04-29T02:52:34;2.57;;;2.00;;
8213;SDS011;4148;47.974;7.824;2023-04-29T02:55:03;3.50;;;2.40;;
8213;SDS011;4148;47.974;7.824;2023-04-29T02:57:31;2.83;;;2.40;;
8213;SDS011;4148;47.974;7.824;2023-04-29T02:59:59;4.60;;;2.20;;
8213;SDS011;4148;47.974;7.824;2023-04-29T03:02:27;2.60;;;1.83;;
8213;SDS011;4148;47.974;7.824;2023-04-29T03:04:56;4.77;;;2.50;;
8213;SDS011;4148;47.974;7.824;2023-04-29T03:07:24;2.60;;;2.40;;
8213;SDS011;4148;47.974;7.824;2023-04-29T03:09:53;4.33;;;2.20;;
8213;SDS011;4148;47.974;7.824;2023-04-29T03:12:21;3.03;;;1.90;;
8213;SDS011;4148;47.974;7.824;2023-04-29T03:14:49;3.00;;;2.00;;
8213;SDS011;4148;47.974;7.824;2023-04-29T03:17:17;3.00;;;2.03;;
8213;SDS011;4148;47.974;7.824;2023-04-29T03:19:44;2.33;;;1.60;;
8213;SDS011;4148;47.974;7.824;2023-04-29T03:22:14;5.93;;;2.00;;
8213;SDS011;4148;47.974;7.824;2023-04-29T03:24:42;5.30;;;1.93;;
8213;SDS011;4148;47.974;7.824;2023-04-29T03:27:09;3.87;;;1.90;;
8213;SDS011;4148;47.974;7.824;2023-04-29T03:29:37;2.77;;;1.80;;
8213;SDS011;4148;47.974;7.824;2023-04-29T03:32:05;4.10;;;2.10;;
8213;SDS011;4148;47.974;7.824;2023-04-29T03:34:33;3.53;;;2.13;;
8213;SDS011;4148;47.974;7.824;2023-04-29T03:37:01;2.80;;;2.60;;
8213;SDS011;4148;47.974;7.824;2023-04-29T03:39:30;6.80;;;2.20;;
8213;SDS011;4148;47.974;7.824;2023-04-29T03:41:58;3.30;;;2.20;;
8213;SDS011;4148;47.974;7.824;2023-04-29T03:44:26;3.03;;;2.00;;
8213;SDS011;4148;47.974;7.824;2023-04-29T03:46:54;3.80;;;1.93;;
8213;SDS011;4148;47.974;7.824;2023-04-29T03:49:22;3.07;;;1.93;;
8213;SDS011;4148;47.974;7.824;2023-04-29T03:51:50;2.90;;;2.40;;
8213;SDS011;4148;47.974;7.824;2023-04-29T03:54:18;2.13;;;1.80;;
8213;SDS011;4148;47.974;7.824;2023-04-29T03:56:48;5.43;;;2.20;;
8213;SDS011;4148;47.974;7.824;2023-04-29T03:59:15;5.30;;;2.27;;
8213;SDS011;4148;47.974;7.824;2023-04-29T04:01:43;3.43;;;1.87;;
8213;SDS011;4148;47.974;7.824;2023-04-29T04:04:11;3.00;;;2.10;;
8213;SDS011;4148;47.974;7.824;2023-04-29T04:06:40;2.40;;;1.80;;
8213;SDS011;4148;47.974;7.824;2023-04-29T04:09:09;3.10;;;2.00;;
8213;SDS011;4148;47.974;7.824;2023-04-29T04:11:37;3.23;;;2.07;;
8213;SDS011;4148;47.974;7.824;2023-04-29T04:14:06;3.20;;;2.43;;
8213;SDS011;4148;47.974;7.824;2023-04-29T04:16:34;2.10;;;1.90;;
8213;SDS011;4148;47.974;7.824;2023-04-29T04:19:02;2.33;;;2.00;;
8213;SDS011;4148;47.974;7.824;2023-04-29T04:21:29;3.93;;;2.07;;
8213;SDS011;4148;47.974;7.824;2023-04-29T04:23:57;3.50;;;2.07;;
8213;SDS011;4148;47.974;7.824;2023-04-29T04:26:25;2.70;;;2.30;;
8213;SDS011;4148;47.974;7.824;2023-04-29T04:28:53;3.80;;;2.23;;
8213;SDS011;4148;47.974;7.824;2023-04-29T04:31:22;3.47;;;2.53;;
8213;SDS011;4148;47.974;7.824;2023-04-29T04:33:50;4.07;;;2.77;;
8213;SDS011;4148;47.974;7.824;2023-04-29T04:36:18;2.30;;;2.10;;
8213;SDS011;4148;47.974;7.824;2023-04-29T04:38:46;5.57;;;2.50;;
8213;SDS011;4148;47.974;7.824;2023-04-29T04:41:13;4.37;;;2.43;;
8213;SDS011;4148;47.974;7.824;2023-04-29T04:43:41;2.97;;;2.23;;
8213;SDS011;4148;47.974;7.824;2023-04-29T04:46:09;2.90;;;2.27;;
8213;SDS011;4148;47.974;7.824;2023-04-29T04:48:39;4.23;;;2.20;;
8213;SDS011;4148;47.974;7.824;2023-04-29T04:51:07;2.93;;;2.47;;
8213;SDS011;4148;47.974;7.824;2023-04-29T04:53:36;2.57;;;2.30;;
8213;SDS011;4148;47.974;7.824;2023-04-29T04:56:04;5.50;;;2.00;;
8213;SDS011;4148;47.974;7.824;2023-04-29T04:58:32;4.13;;;2.43;;
8213;SDS011;4148;47.974;7.824;2023-04-29T05:01:00;2.40;;;2.20;;
8213;SDS011;4148;47.974;7.824;2023-04-29T05:03:28;2.87;;;2.10;;
8213;SDS011;4148;47.974;7.824;2023-04-29T05:05:58;5.37;;;2.30;;
8213;SDS011;4148;47.974;7.824;2023-04-29T05:08:26;2.93;;;2.27;;
8213;SDS011;4148;47.974;7.824;2023-04-29T05:10:54;3.10;;;2.50;;
8213;SDS011;4148;47.974;7.824;2023-04-29T05:13:23;4.20;;;2.30;;
8213;SDS011;4148;47.974;7.824;2023-04-29T05:15:51;6.57;;;2.07;;
8213;SDS011;4148;47.974;7.824;2023-04-29T05:18:19;2.80;;;2.50;;
8213;SDS011;4148;47.974;7.824;2023-04-29T05:20:46;3.83;;;2.50;;
8213;SDS011;4148;47.974;7.824;2023-04-29T05:23:16;4.80;;;2.63;;
8213;SDS011;4148;47.974;7.824;2023-04-29T05:25:43;4.17;;;2.57;;
8213;SDS011;4148;47.974;7.824;2023-04-29T05:28:11;3.40;;;2.83;;
8213;SDS011;4148;47.974;7.824;2023-04-29T05:30:39;3.10;;;2.80;;
8213;SDS011;4148;47.974;7.824;2023-04-29T05:33:07;4.30;;;2.53;;
8213;SDS011;4148;47.974;7.824;2023-04-29T05:35:35;2.90;;;2.40;;
8213;SDS011;4148;47.974;7.824;2023-04-29T05:38:03;2.60;;;2.40;;
8213;SDS011;4148;47.974;7.824;2023-04-29T05:40:32;4.10;;;2.80;;
8213;SDS011;4148;47.974;7.824;2023-04-29T05:43:00;2.57;;;2.37;;
8213;SDS011;4148;47.974;7.824;2023-04-29T05:45:28;3.53;;;3.17;;
8213;SDS011;4148;47.974;7.824;2023-04-29T05:47:55;5.27;;;3.70;;
8213;SDS011;4148;47.974;7.824;2023-04-29T05:50:23;4.17;;;3.47;;
8213;SDS011;4148;47.974;7.824;2023-04-29T05:52:51;4.00;;;3.30;;
8213;SDS011;4148;47.974;7.824;2023-04-29T05:55:20;8.23;;;4.10;;
8213;SDS011;4148;47.974;7.824;2023-04-29T05:57:49;5.40;;;3.57;;
8213;SDS011;4148;47.974;7.824;2023-04-29T06:00:17;4.23;;;3.40;;
8213;SDS011;4148;47.974;7.824;2023-04-29T06:02:45;3.83;;;3.43;;
8213;SDS011;4148;47.974;7.824;2023-04-29T06:05:23;3.70;;;3.40;;
8213;SDS011;4148;47.974;7.824;2023-04-29T06:07:52;4.00;;;3.40;;
8213;SDS011;4148;47.974;7.824;2023-04-29T06:10:20;3.10;;;2.80;;
8213;SDS011;4148;47.974;7.824;2023-04-29T06:12:49;3.50;;;3.13;;
8213;SDS011;4148;47.974;7.824;2023-04-29T06:15:17;12.03;;;3.57;;
8213;SDS011;4148;47.974;7.824;2023-04-29T06:17:45;6.20;;;2.90;;
8213;SDS011;4148;47.974;7.824;2023-04-29T06:20:13;3.70;;;2.90;;
8213;SDS011;4148;47.974;7.824;2023-04-29T06:22:43;3.37;;;3.00;;
8213;SDS011;4148;47.974;7.824;2023-04-29T06:25:11;3.30;;;2.67;;
8213;SDS011;4148;47.974;7.824;2023-04-29T06:27:39;4.60;;;2.87;;
8213;SDS011;4148;47.974;7.824;2023-04-29T06:30:09;5.03;;;3.17;;
8213;SDS011;4148;47.974;7.824;2023-04-29T06:32:37;3.00;;;2.40;;
8213;SDS011;4148;47.974;7.824;2023-04-29T06:35:05;2.60;;;2.40;;
8213;SDS011;4148;47.974;7.824;2023-04-29T06:37:34;2.90;;;2.60;;
8213;SDS011;4148;47.974;7.824;2023-04-29T06:40:03;3.30;;;2.63;;
8213;SDS011;4148;47.974;7.824;2023-04-29T06:42:32;3.07;;;2.77;;
8213;SDS011;4148;47.974;7.824;2023-04-29T06:45:00;3.57;;;2.40;;
8213;SDS011;4148;47.974;7.824;2023-04-29T06:47:29;10.03;;;2.83;;
8213;SDS011;4148;47.974;7.824;2023-04-29T06:49:58;4.17;;;2.67;;
8213;SDS011;4148;47.974;7.824;2023-04-29T06:52:25;2.67;;;2.33;;
8213;SDS011;4148;47.974;7.824;2023-04-29T06:54:53;3.47;;;2.27;;
8213;SDS011;4148;47.974;7.824;2023-04-29T06:57:21;3.20;;;2.53;;
8213;SDS011;4148;47.974;7.824;2023-04-29T06:59:49;4.07;;;2.50;;
8213;SDS011;4148;47.974;7.824;2023-04-29T07:02:17;2.57;;;2.03;;
8213;SDS011;4148;47.974;7.824;2023-04-29T07:04:46;4.23;;;2.40;;
8213;SDS011;4148;47.974;7.824;2023-04-29T07:07:15;2.87;;;2.50;;
8213;SDS011;4148;47.974;7.824;2023-04-29T07:09:43;2.83;;;1.90;;
8213;SDS011;4148;47.974;7.824;2023-04-29T07:12:11;3.73;;;2.17;;
8213;SDS011;4148;47.974;7.824;2023-04-29T07:14:38;2.63;;;1.90;;
8213;SDS011;4148;47.974;7.824;2023-04-29T07:17:07;3.63;;;2.30;;
8213;SDS011;4148;47.974;7.824;2023-04-29T07:19:37;3.53;;;2.10;;
8213;SDS011;4148;47.974;7.824;2023-04-29T07:22:06;3.43;;;2.70;;
8213;SDS011;4148;47.974;7.824;2023-04-29T07:24:35;2.83;;;2.10;;
8213;SDS011;4148;47.974;7.824;2023-04-29T07:27:02;3.27;;;2.10;;
8213;SDS011;4148;47.974;7.824;2023-04-29T07:29:30;4.10;;;2.10;;
8213;SDS011;4148;47.974;7.824;2023-04-29T07:31:59;2.37;;;2.03;;
8213;SDS011;4148;47.974;7.824;2023-04-29T07:34:27;2.40;;;2.10;;
8213;SDS011;4148;47.974;7.824;2023-04-29T07:36:55;7.30;;;2.40;;
8213;SDS011;4148;47.974;7.824;2023-04-29T07:39:24;2.90;;;2.00;;
8213;SDS011;4148;47.974;7.824;2023-04-29T07:41:54;3.03;;;1.80;;
8213;SDS011;4148;47.974;7.824;2023-04-29T07:44:22;2.67;;;2.33;;
8213;SDS011;4148;47.974;7.824;2023-04-29T07:46:49;4.37;;;2.27;;
8213;SDS011;4148;47.974;7.824;2023-04-29T07:49:17;2.60;;;1.97;;
8213;SDS011;4148;47.974;7.824;2023-04-29T07:51:45;2.67;;;2.20;;
8213;SDS011;4148;47.974;7.824;2023-04-29T07:54:13;3.50;;;2.07;;
8213;SDS011;4148;47.974;7.824;2023-04-29T07:56:43;4.80;;;2.07;;
8213;SDS011;4148;47.974;7.824;2023-04-29T07:59:11;3.70;;;2.20;;
8213;SDS011;4148;47.974;7.824;2023-04-29T08:01:39;2.10;;;1.90;;
8213;SDS011;4148;47.974;7.824;2023-04-29T08:04:07;5.40;;;2.07;;
8213;SDS011;4148;47.974;7.824;2023-04-29T08:06:35;3.13;;;1.80;;
8213;SDS011;4148;47.974;7.824;2023-04-29T08:09:03;4.30;;;2.10;;
8213;SDS011;4148;47.974;7.824;2023-04-29T08:11:31;3.83;;;2.10;;
8213;SDS011;4148;47.974;7.824;2023-04-29T08:14:00;2.77;;;2.07;;
8213;SDS011;4148;47.974;7.824;2023-04-29T08:16:28;2.00;;;1.70;;
8213;SDS011;4148;47.974;7.824;2023-04-29T08:18:56;3.40;;;2.20;;
8213;SDS011;4148;47.974;7.824;2023-04-29T08:21:24;3.17;;;2.00;;
8213;SDS011;4148;47.974;7.824;2023-04-29T08:23:52;3.57;;;2.00;;
8213;SDS011;4148;47.974;7.824;2023-04-29T08:26:20;2.97;;;2.00;;
8213;SDS011;4148;47.974;7.824;2023-04-29T08:28:49;2.93;;;2.27;;
8213;SDS011;4148;47.974;7.824;2023-04-29T08:31:18;3.07;;;2.33;;
8213;SDS011;4148;47.974;7.824;2023-04-29T08:33:47;3.23;;;2.30;;
8213;SDS011;4148;47.974;7.824;2023-04-29T08:36:14;3.00;;;2.30;;
8213;SDS011;4148;47.974;7.824;2023-04-29T08:38:42;3.10;;;2.00;;
8213;SDS011;4148;47.974;7.824;2023-04-29T08:41:11;3.37;;;2.67;;
8213;SDS011;4148;47.974;7.824;2023-04-29T08:43:40;2.90;;;2.57;;
8213;SDS011;4148;47.974;7.824;2023-04-29T08:46:08;4.20;;;2.60;;
8213;SDS011;4148;47.974;7.824;2023-04-29T08:48:38;4.07;;;2.53;;
8213;SDS011;4148;47.974;7.824;2023-04-29T08:51:10;2.93;;;2.17;;
8213;SDS011;4148;47.974;7.824;2023-04-29T08:53:38;5.67;;;2.33;;
8213;SDS011;4148;47.974;7.824;2023-04-29T08:56:07;3.57;;;2.33;;
8213;SDS011;4148;47.974;7.824;2023-04-29T08:58:39;3.20;;;2.47;;
8213;SDS011;4148;47.974;7.824;2023-04-29T09:01:08;3.60;;;2.63;;
8213;SDS011;4148;47.974;7.824;2023-04-29T09:03:42;4.77;;;2.87;;
8213;SDS011;4148;47.974;7.824;2023-04-29T09:06:15;6.50;;;2.50;;
8213;SDS011;4148;47.974;7.824;2023-04-29T09:08:44;3.33;;;2.50;;
8213;SDS011;4148;47.974;7.824;2023-04-29T09:11:12;4.50;;;2.50;;
8213;SDS011;4148;47.974;7.824;2023-04-29T09:13:40;3.83;;;2.90;;
8213;SDS011;4148;47.974;7.824;2023-04-29T09:16:11;2.50;;;2.30;;
8213;SDS011;4148;47.974;7.824;2023-04-29T09:18:44;3.60;;;2.70;;
8213;SDS011;4148;47.974;7.824;2023-04-29T09:21:13;4.60;;;2.80;;
8213;SDS011;4148;47.974;7.824;2023-04-29T09:23:45;2.50;;;2.13;;
8213;SDS011;4148;47.974;7.824;2023-04-29T09:26:14;4.40;;;2.70;;
8213;SDS011;4148;47.974;7.824;2023-04-29T09:28:42;8.33;;;2.60;;
8213;SDS011;4148;47.974;7.824;2023-04-29T09:31:12;4.33;;;2.77;;
8213;SDS011;4148;47.974;7.824;2023-04-29T09:33:52;2.70;;;2.50;;
8213;SDS011;4148;47.974;7.824;2023-04-29T09:36:36;4.27;;;2.53;;
8213;SDS011;4148;47.974;7.824;2023-04-29T09:39:38;3.80;;;2.93;;
8213;SDS011;4148;47.974;7.824;2023-04-29T09:42:06;3.17;;;2.40;;
8213;SDS011;4148;47.974;7.824;2023-04-29T09:44:34;4.40;;;2.63;;
8213;SDS011;4148;47.974;7.824;2023-04-29T09:47:03;3.93;;;2.53;;
8213;SDS011;4148;47.974;7.824;2023-04-29T09:49:34;5.10;;;2.83;;
8213;SDS011;4148;47.974;7.824;2023-04-29T09:52:04;4.83;;;2.60;;
8213;SDS011;4148;47.974;7.824;2023-04-29T09:54:33;5.83;;;2.90;;
8213;SDS011;4148;47.974;7.824;2023-04-29T09:57:02;3.43;;;2.47;;
8213;SDS011;4148;47.974;7.824;2023-04-29T09:59:32;3.20;;;2.67;;
8213;SDS011;4148;47.974;7.824;2023-04-29T10:02:02;4.33;;;2.73;;
8213;SDS011;4148;47.974;7.824;2023-04-29T10:04:38;2.93;;;2.60;;
8213;SDS011;4148;47.974;7.824;2023-04-29T10:07:08;2.73;;;2.43;;
8213;SDS011;4148;47.974;7.824;2023-04-29T10:09:40;2.77;;;2.57;;
8213;SDS011;4148;47.974;7.824;2023-04-29T10:12:08;3.60;;;2.30;;
8213;SDS011;4148;47.974;7.824;2023-04-29T10:14:37;2.40;;;2.20;;
8213;SDS011;4148;47.974;7.824;2023-04-29T10:17:13;2.80;;;2.27;;
8213;SDS011;4148;47.974;7.824;2023-04-29T10:19:46;2.93;;;2.50;;
8213;SDS011;4148;47.974;7.824;2023-04-29T10:22:21;2.87;;;2.60;;
8213;SDS011;4148;47.974;7.824;2023-04-29T10:24:53;3.33;;;2.50;;
8213;SDS011;4148;47.974;7.824;2023-04-29T10:27:24;2.53;;;2.33;;
8213;SDS011;4148;47.974;7.824;2023-04-29T10:29:54;3.03;;;2.73;;
8213;SDS011;4148;47.974;7.824;2023-04-29T10:32:23;3.03;;;2.53;;
8213;SDS011;4148;47.974;7.824;2023-04-29T10:35:01;2.83;;;2.57;;
8213;SDS011;4148;47.974;7.824;2023-04-29T10:37:31;3.00;;;2.60;;
8213;SDS011;4148;47.974;7.824;2023-04-29T10:40:00;3.73;;;2.63;;
8213;SDS011;4148;47.974;7.824;2023-04-29T10:42:37;2.70;;;2.13;;
8213;SDS011;4148;47.974;7.824;2023-04-29T10:45:16;2.70;;;2.43;;
8213;SDS011;4148;47.974;7.824;2023-04-29T10:50:40;5.00;;;2.17;;
8213;SDS011;4148;47.974;7.824;2023-04-29T10:53:24;2.40;;;2.10;;
8213;SDS011;4148;47.974;7.824;2023-04-29T10:55:52;3.50;;;2.60;;
8213;SDS011;4148;47.974;7.824;2023-04-29T11:01:26;3.63;;;2.63;;
8213;SDS011;4148;47.974;7.824;2023-04-29T11:04:07;5.07;;;2.57;;
8213;SDS011;4148;47.974;7.824;2023-04-29T11:06:41;3.00;;;2.50;;
8213;SDS011;4148;47.974;7.824;2023-04-29T11:09:12;4.80;;;3.10;;
8213;SDS011;4148;47.974;7.824;2023-04-29T11:14:39;2.50;;;2.30;;
8213;SDS011;4148;47.974;7.824;2023-04-29T11:17:09;3.10;;;2.67;;
8213;SDS011;4148;47.974;7.824;2023-04-29T11:19:39;2.83;;;2.53;;
8213;SDS011;4148;47.974;7.824;2023-04-29T11:22:12;2.70;;;1.93;;
8213;SDS011;4148;47.974;7.824;2023-04-29T11:24:51;5.97;;;3.00;;
8213;SDS011;4148;47.974;7.824;2023-04-29T11:27:22;2.60;;;2.40;;
8213;SDS011;4148;47.974;7.824;2023-04-29T11:29:52;3.47;;;2.77;;
8213;SDS011;4148;47.974;7.824;2023-04-29T11:32:24;3.00;;;2.73;;
8213;SDS011;4148;47.974;7.824;2023-04-29T11:34:53;4.13;;;2.97;;
8213;SDS011;4148;47.974;7.824;2023-04-29T11:37:23;4.33;;;2.83;;
8213;SDS011;4148;47.974;7.824;2023-04-29T11:39:57;4.90;;;2.80;;
8213;SDS011;4148;47.974;7.824;2023-04-29T11:42:26;2.67;;;2.27;;
8213;SDS011;4148;47.974;7.824;2023-04-29T11:44:54;3.73;;;2.60;;
8213;SDS011;4148;47.974;7.824;2023-04-29T11:47:25;2.60;;;2.40;;
8213;SDS011;4148;47.974;7.824;2023-04-29T11:50:00;3.13;;;2.83;;
8213;SDS011;4148;47.974;7.824;2023-04-29T11:52:31;4.53;;;2.63;;
8213;SDS011;4148;47.974;7.824;2023-04-29T11:54:58;4.57;;;2.60;;
8213;SDS011;4148;47.974;7.824;2023-04-29T11:57:26;3.20;;;2.60;;
8213;SDS011;4148;47.974;7.824;2023-04-29T11:59:55;2.67;;;2.47;;
8213;SDS011;4148;47.974;7.824;2023-04-29T12:02:28;4.00;;;2.60;;
8213;SDS011;4148;47.974;7.824;2023-04-29T12:04:57;3.70;;;2.40;;
8213;SDS011;4148;47.974;7.824;2023-04-29T12:07:26;4.20;;;3.33;;
8213;SDS011;4148;47.974;7.824;2023-04-29T12:09:55;4.07;;;2.90;;
8213;SDS011;4148;47.974;7.824;2023-04-29T12:12:23;5.33;;;3.10;;
8213;SDS011;4148;47.974;7.824;2023-04-29T12:14:52;4.03;;;2.80;;
8213;SDS011;4148;47.974;7.824;2023-04-29T12:17:21;3.83;;;3.23;;
8213;SDS011;4148;47.974;7.824;2023-04-29T12:19:50;3.10;;;2.80;;
8213;SDS011;4148;47.974;7.824;2023-04-29T12:22:18;4.10;;;3.00;;
8213;SDS011;4148;47.974;7.824;2023-04-29T12:24:46;3.03;;;2.73;;
8213;SDS011;4148;47.974;7.824;2023-04-29T12:27:17;4.10;;;2.57;;
8213;SDS011;4148;47.974;7.824;2023-04-29T12:29:45;2.67;;;2.47;;
8213;SDS011;4148;47.974;7.824;2023-04-29T12:32:15;2.93;;;2.30;;
8213;SDS011;4148;47.974;7.824;2023-04-29T12:34:44;2.57;;;2.37;;
8213;SDS011;4148;47.974;7.824;2023-04-29T12:37:12;3.47;;;2.47;;
8213;SDS011;4148;47.974;7.824;2023-04-29T12:39:41;2.60;;;2.40;;
8213;SDS011;4148;47.974;7.824;2023-04-29T12:42:13;2.90;;;2.57;;
8213;SDS011;4148;47.974;7.824;2023-04-29T12:44:44;2.60;;;2.40;;
8213;SDS011;4148;47.974;7.824;2023-04-29T12:47:13;3.10;;;2.33;;
8213;SDS011;4148;47.974;7.824;2023-04-29T12:49:42;3.30;;;2.70;;
8213;SDS011;4148;47.974;7.824;2023-04-29T12:52:11;3.10;;;2.13;;
8213;SDS011;4148;47.974;7.824;2023-04-29T12:54:40;2.77;;;2.47;;
8213;SDS011;4148;47.974;7.824;2023-04-29T12:57:09;3.20;;;2.13;;
8213;SDS011;4148;47.974;7.824;2023-04-29T12:59:37;3.90;;;2.40;;
8213;SDS011;4148;47.974;7.824;2023-04-29T13:02:08;3.37;;;3.07;;
8213;SDS011;4148;47.974;7.824;2023-04-29T13:04:35;4.00;;;2.93;;
8213;SDS011;4148;47.974;7.824;2023-04-29T13:07:16;3.47;;;2.93;;
8213;SDS011;4148;47.974;7.824;2023-04-29T13:09:44;3.60;;;2.90;;
8213;SDS011;4148;47.974;7.824;2023-04-29T13:12:11;2.60;;;2.40;;
8213;SDS011;4148;47.974;7.824;2023-04-29T13:14:39;3.77;;;2.70;;
8213;SDS011;4148;47.974;7.824;2023-04-29T13:17:08;3.30;;;3.00;;
8213;SDS011;4148;47.974;7.824;2023-04-29T13:19:36;2.50;;;2.30;;
8213;SDS011;4148;47.974;7.824;2023-04-29T13:22:17;2.90;;;2.60;;
8213;SDS011;4148;47.974;7.824;2023-04-29T13:24:45;3.53;;;3.23;;
8213;SDS011;4148;47.974;7.824;2023-04-29T13:27:12;2.77;;;2.57;;
8213;SDS011;4148;47.974;7.824;2023-04-29T13:29:40;4.03;;;2.57;;
8213;SDS011;4148;47.974;7.824;2023-04-29T13:32:09;4.50;;;3.10;;
8213;SDS011;4148;47.974;7.824;2023-04-29T13:34:38;4.77;;;3.30;;
8213;SDS011;4148;47.974;7.824;2023-04-29T13:37:08;3.33;;;2.93;;
8213;SDS011;4148;47.974;7.824;2023-04-29T13:39:36;4.63;;;3.30;;
8213;SDS011;4148;47.974;7.824;2023-04-29T13:42:05;3.70;;;3.00;;
8213;SDS011;4148;47.974;7.824;2023-04-29T13:44:34;4.50;;;3.60;;
8213;SDS011;4148;47.974;7.824;2023-04-29T13:47:23;4.77;;;3.27;;
8213;SDS011;4148;47.974;7.824;2023-04-29T13:49:56;3.90;;;3.00;;
8213;SDS011;4148;47.974;7.824;2023-04-29T13:52:44;3.40;;;2.90;;
8213;SDS011;4148;47.974;7.824;2023-04-29T13:55:15;3.93;;;3.10;;
8213;SDS011;4148;47.974;7.824;2023-04-29T13:57:45;4.67;;;3.20;;
8213;SDS011;4148;47.974;7.824;2023-04-29T14:00:16;4.53;;;3.40;;
8213;SDS011;4148;47.974;7.824;2023-04-29T14:03:05;2.90;;;2.60;;
8213;SDS011;4148;47.974;7.824;2023-04-29T14:05:33;4.37;;;3.47;;
8213;SDS011;4148;47.974;7.824;2023-04-29T14:08:02;3.50;;;3.10;;
8213;SDS011;4148;47.974;7.824;2023-04-29T14:10:30;3.80;;;3.30;;
8213;SDS011;4148;47.974;7.824;2023-04-29T14:12:58;5.90;;;3.77;;
8213;SDS011;4148;47.974;7.824;2023-04-29T14:15:26;4.63;;;3.10;;
8213;SDS011;4148;47.974;7.824;2023-04-29T14:17:54;4.77;;;3.27;;
8213;SDS011;4148;47.974;7.824;2023-04-29T14:20:23;6.77;;;3.70;;
8213;SDS011;4148;47.974;7.824;2023-04-29T14:22:51;3.80;;;3.10;;
8213;SDS011;4148;47.974;7.824;2023-04-29T14:25:19;3.47;;;3.17;;
8213;SDS011;4148;47.974;7.824;2023-04-29T14:27:47;3.90;;;3.50;;
8213;SDS011;4148;47.974;7.824;2023-04-29T14:30:15;4.10;;;3.23;;
8213;SDS011;4148;47.974;7.824;2023-04-29T14:32:42;5.40;;;3.37;;
8213;SDS011;4148;47.974;7.824;2023-04-29T14:35:11;4.00;;;3.27;;
8213;SDS011;4148;47.974;7.824;2023-04-29T14:37:41;3.20;;;2.90;;
8213;SDS011;4148;47.974;7.824;2023-04-29T14:40:09;3.70;;;3.30;;
8213;SDS011;4148;47.974;7.824;2023-04-29T14:42:37;6.30;;;3.90;;
8213;SDS011;4148;47.974;7.824;2023-04-29T14:45:05;6.10;;;3.50;;
8213;SDS011;4148;47.974;7.824;2023-04-29T14:47:34;4.90;;;3.70;;
8213;SDS011;4148;47.974;7.824;2023-04-29T14:50:02;5.60;;;4.03;;
8213;SDS011;4148;47.974;7.824;2023-04-29T14:52:30;4.63;;;3.63;;
8213;SDS011;4148;47.974;7.824;2023-04-29T14:54:59;4.73;;;3.33;;
8213;SDS011;4148;47.974;7.824;2023-04-29T14:57:27;4.03;;;3.63;;
8213;SDS011;4148;47.974;7.824;2023-04-29T14:59:55;4.10;;;3.60;;
8213;SDS011;4148;47.974;7.824;2023-04-29T15:02:23;3.10;;;2.80;;
8213;SDS011;4148;47.974;7.824;2023-04-29T15:04:51;4.27;;;3.87;;
8213;SDS011;4148;47.974;7.824;2023-04-29T15:07:20;5.30;;;4.10;;
8213;SDS011;4148;47.974;7.824;2023-04-29T15:09:47;4.27;;;3.30;;
8213;SDS011;4148;47.974;7.824;2023-04-29T15:12:17;4.83;;;2.90;;
8213;SDS011;4148;47.974;7.824;2023-04-29T15:14:46;5.00;;;3.10;;
8213;SDS011;4148;47.974;7.824;2023-04-29T15:17:14;4.07;;;3.27;;
8213;SDS011;4148;47.974;7.824;2023-04-29T15:19:41;3.97;;;3.30;;
8213;SDS011;4148;47.974;7.824;2023-04-29T15:22:09;4.27;;;3.50;;
8213;SDS011;4148;47.974;7.824;2023-04-29T15:24:38;4.60;;;4.10;;
8213;SDS011;4148;47.974;7.824;2023-04-29T15:27:06;4.17;;;3.33;;
8213;SDS011;4148;47.974;7.824;2023-04-29T15:29:35;3.90;;;3.43;;
8213;SDS011;4148;47.974;7.824;2023-04-29T15:32:03;5.50;;;3.63;;
8213;SDS011;4148;47.974;7.824;2023-04-29T15:34:32;3.80;;;3.50;;
8213;SDS011;4148;47.974;7.824;2023-04-29T15:36:59;6.50;;;4.10;;